« Back
NWS Peachtree City, Ga » Text Product » AHN Terminal Aerodrome Forecast


Printer-friendly Version
Current Version              Previous Versions:   1  2  3  4  5  6  7  8  9  

Terminal Aerodrome Forecast

227
FTAK31 PAJN 210800 AAA
TAFAHN
TAF AMD
PAHN 210855Z 2109/2206 07010G16KT P6SM SCT025 BKN060
     FM211100 VRB04KT P6SM SCT050 BKN100
     FM211400 31006KT P6SM SCT030 BKN060
     FM211800 31008KT P6SM BKN050 BKN080
     FM212100 31011KT P6SM VCSH SCT025 BKN050
     FM220300 31008KT P6SM VCSH BKN050 OVC100
      AMD LTD TO CLD VIS AND WIND=

USA.gov is the U.S. government's official web portal to all federal, state and local government web resources and services.